createdAt,value
2019-04-27T00:00:51.115Z,100.00
2019-04-27T00:01:48.460Z,100.00
2019-04-27T00:02:45.112Z,100.00
2019-04-27T00:03:43.263Z,100.00
2019-04-27T00:04:39.088Z,100.00
2019-04-27T00:05:36.094Z,100.00
2019-04-27T00:06:33.747Z,100.00
2019-04-27T00:07:29.584Z,100.00
2019-04-27T00:08:28.535Z,100.00
2019-04-27T00:09:24.057Z,100.00
2019-04-27T00:10:25.298Z,100.00
2019-04-27T00:11:18.045Z,100.00
2019-04-27T00:12:16.484Z,100.00
2019-04-27T00:13:12.935Z,100.00
2019-04-27T00:14:10.278Z,100.00
2019-04-27T00:15:05.519Z,100.00
2019-04-27T00:16:05.618Z,100.00
2019-04-27T00:16:59.514Z,100.00
2019-04-27T00:17:58.555Z,100.00
2019-04-27T00:18:57.842Z,100.00
2019-04-27T00:19:50.998Z,100.00
2019-04-27T00:20:47.978Z,100.00
2019-04-27T00:21:44.972Z,100.00
2019-04-27T00:22:43.567Z,100.00
2019-04-27T00:23:38.950Z,100.00
2019-04-27T00:24:35.810Z,100.00
2019-04-27T00:25:33.889Z,100.00
2019-04-27T00:26:29.938Z,100.00
2019-04-27T00:27:26.928Z,100.00
2019-04-27T00:28:23.949Z,100.00
2019-04-27T00:29:20.417Z,100.00
2019-04-27T00:30:17.900Z,100.00
2019-04-27T00:31:14.902Z,100.00
2019-04-27T00:32:13.191Z,100.00
2019-04-27T00:33:08.888Z,100.00
2019-04-27T00:34:05.882Z,100.00
2019-04-27T00:35:03.729Z,100.00
2019-04-27T00:35:59.379Z,100.00
2019-04-27T00:36:56.877Z,100.00
2019-04-27T00:37:53.847Z,100.00
2019-04-27T00:38:50.361Z,100.00
2019-04-27T00:39:47.832Z,100.00
2019-04-27T00:40:44.341Z,100.00
2019-04-27T00:41:43.015Z,100.00
2019-04-27T00:42:38.834Z,100.00
2019-04-27T00:43:35.818Z,100.00
2019-04-27T00:44:33.880Z,100.00
2019-04-27T00:45:29.813Z,100.00
2019-04-27T00:46:26.786Z,100.00
2019-04-27T00:47:24.777Z,100.00
2019-04-27T00:48:20.284Z,100.00
2019-04-27T00:49:20.170Z,100.00
2019-04-27T00:50:14.768Z,100.00
2019-04-27T00:51:12.919Z,100.00
2019-04-27T00:52:08.799Z,100.00
2019-04-27T00:53:05.808Z,100.00
2019-04-27T00:54:04.679Z,100.00
2019-04-27T00:54:59.726Z,100.00
2019-04-27T00:55:56.730Z,100.00
2019-04-27T00:56:53.715Z,100.00
2019-04-27T00:57:50.717Z,100.00
2019-04-27T00:58:47.708Z,100.00
2019-04-27T00:59:44.703Z,100.00
2019-04-27T01:00:41.203Z,100.00
2019-04-27T01:01:38.681Z,100.00
2019-04-27T01:02:35.690Z,100.00
2019-04-27T01:03:33.242Z,100.00
2019-04-27T01:04:29.668Z,100.00
2019-04-27T01:05:26.662Z,100.00
2019-04-27T01:06:23.437Z,100.00
2019-04-27T01:07:20.656Z,100.00
2019-04-27T01:08:17.159Z,100.00
2019-04-27T01:09:14.139Z,100.00
2019-04-27T01:10:13.358Z,100.00
2019-04-27T01:11:08.623Z,100.00
2019-04-27T01:12:05.617Z,100.00
2019-04-27T01:13:03.288Z,100.00
2019-04-27T01:13:59.110Z,100.00
2019-04-27T01:14:56.102Z,100.00
2019-04-27T01:15:54.143Z,100.00
2019-04-27T01:16:51.500Z,100.00
2019-04-27T01:17:49.049Z,100.00
2019-04-27T01:18:44.129Z,100.00
2019-04-27T01:19:41.068Z,100.00
2019-04-27T01:20:38.835Z,100.00
2019-04-27T01:21:35.539Z,100.00
2019-04-27T01:22:32.045Z,100.00
2019-04-27T01:23:29.414Z,100.00
2019-04-27T01:24:26.559Z,100.00
2019-04-27T01:25:23.033Z,100.00
2019-04-27T01:26:20.507Z,100.00
2019-04-27T01:27:18.818Z,100.00
2019-04-27T01:28:14.011Z,100.00
2019-04-27T01:29:12.489Z,100.00
2019-04-27T01:30:08.808Z,100.00
2019-04-27T01:31:05.532Z,100.00
2019-04-27T01:32:02.474Z,100.00
2019-04-27T01:32:59.608Z,100.00
2019-04-27T01:33:56.476Z,100.00
2019-04-27T01:34:52.958Z,100.00
2019-04-27T01:35:50.454Z,100.00
2019-04-27T01:36:46.947Z,100.00
2019-04-27T01:37:43.941Z,100.00
2019-04-27T01:38:41.431Z,100.00
2019-04-27T01:39:38.753Z,100.00
2019-04-27T01:40:34.926Z,100.00
2019-04-27T01:41:31.909Z,100.00
2019-04-27T01:42:29.540Z,100.00
2019-04-27T01:43:25.906Z,100.00
2019-04-27T01:44:23.696Z,100.00
2019-04-27T01:45:20.384Z,100.00
2019-04-27T01:46:19.293Z,100.00
2019-04-27T01:47:14.381Z,100.00
2019-04-27T01:48:22.929Z,100.00
2019-04-27T01:49:09.223Z,100.00
2019-04-27T01:50:04.859Z,100.00
2019-04-27T01:51:01.845Z,100.00
2019-04-27T01:51:59.449Z,100.00
2019-04-27T01:52:55.831Z,100.00
2019-04-27T01:53:53.310Z,100.00
2019-04-27T01:54:50.313Z,100.00
2019-04-27T01:55:49.005Z,100.00
2019-04-27T01:56:44.302Z,100.00
2019-04-27T01:57:40.802Z,100.00
2019-04-27T01:58:39.259Z,100.00
2019-04-27T01:59:35.280Z,100.00
2019-04-27T02:00:32.263Z,100.00
2019-04-27T02:01:29.277Z,100.00
2019-04-27T02:02:26.269Z,100.00
2019-04-27T02:03:23.258Z,100.00
2019-04-27T02:04:20.257Z,100.00
2019-04-27T02:05:19.001Z,100.00
2019-04-27T02:06:14.237Z,100.00
2019-04-27T02:07:10.742Z,100.00
2019-04-27T02:08:09.521Z,100.00
2019-04-27T02:09:05.220Z,100.00
2019-04-27T02:10:01.716Z,100.00
2019-04-27T02:10:59.445Z,100.00
2019-04-27T02:11:55.697Z,100.00
2019-04-27T02:12:53.207Z,100.00
2019-04-27T02:13:50.987Z,100.00
2019-04-27T02:14:49.110Z,100.00
2019-04-27T02:15:44.175Z,100.00
2019-04-27T02:16:41.163Z,100.00
2019-04-27T02:17:38.661Z,100.00
2019-04-27T02:18:37.783Z,100.00
2019-04-27T02:19:31.652Z,100.00
2019-04-27T02:20:30.087Z,100.00
2019-04-27T02:21:26.118Z,100.00
2019-04-27T02:22:23.123Z,100.00
2019-04-27T02:23:19.615Z,100.00
2019-04-27T02:24:18.600Z,100.00
2019-04-27T02:25:14.101Z,100.00
2019-04-27T02:26:10.898Z,100.00
2019-04-27T02:27:08.976Z,100.00
2019-04-27T02:28:04.580Z,100.00
2019-04-27T02:29:01.599Z,100.00
2019-04-27T02:29:59.205Z,100.00
2019-04-27T02:30:55.569Z,100.00
2019-04-27T02:31:53.057Z,100.00
2019-04-27T02:32:50.053Z,100.00
2019-04-27T02:33:46.540Z,100.00
2019-04-27T02:34:44.036Z,100.00
2019-04-27T02:35:42.025Z,100.00
2019-04-27T02:36:39.158Z,100.00
2019-04-27T02:37:35.035Z,100.00
2019-04-27T02:38:31.511Z,100.00
2019-04-27T02:39:29.766Z,100.00
2019-04-27T02:40:25.496Z,100.00
2019-04-27T02:41:22.985Z,100.00
2019-04-27T02:42:20.291Z,100.00
2019-04-27T02:43:19.233Z,100.00
2019-04-27T02:44:13.962Z,100.00
2019-04-27T02:45:10.463Z,100.00
2019-04-27T02:46:09.627Z,100.00
2019-04-27T02:47:04.949Z,100.00
2019-04-27T02:48:01.440Z,100.00
2019-04-27T02:49:03.563Z,100.00
2019-04-27T02:49:55.919Z,100.00
2019-04-27T02:50:52.422Z,100.00
2019-04-27T02:51:49.931Z,100.00
2019-04-27T02:52:46.913Z,100.00
2019-04-27T02:53:43.889Z,100.00
2019-04-27T02:54:40.897Z,100.00
2019-04-27T02:55:39.706Z,100.00
2019-04-27T02:56:34.881Z,100.00
2019-04-27T02:57:31.375Z,100.00
2019-04-27T02:58:31.578Z,100.00
2019-04-27T02:59:25.863Z,100.00
2019-04-27T03:00:23.073Z,100.00
2019-04-27T03:01:20.133Z,100.00
2019-04-27T03:02:19.437Z,100.00
2019-04-27T03:03:13.366Z,100.00
2019-04-27T03:04:10.835Z,100.00
2019-04-27T03:05:12.808Z,100.00
2019-04-27T03:06:04.343Z,100.00
2019-04-27T03:07:01.811Z,100.00
2019-04-27T03:07:59.659Z,100.00
2019-04-27T03:08:55.793Z,100.00
2019-04-27T03:09:52.787Z,100.00
2019-04-27T03:10:50.346Z,100.00
2019-04-27T03:11:49.767Z,100.00
2019-04-27T03:12:43.776Z,100.00
2019-04-27T03:13:40.775Z,100.00
2019-04-27T03:14:40.132Z,100.00
2019-04-27T03:15:34.761Z,100.00
2019-04-27T03:16:31.728Z,100.00
2019-04-27T03:17:31.042Z,100.00
2019-04-27T03:18:25.715Z,100.00
2019-04-27T03:19:22.733Z,100.00
2019-04-27T03:20:20.199Z,100.00
2019-04-27T03:21:16.215Z,100.00
2019-04-27T03:22:13.213Z,100.00
2019-04-27T03:23:10.194Z,100.00
2019-04-27T03:24:07.186Z,100.00
2019-04-27T03:25:04.668Z,100.00
2019-04-27T03:26:01.172Z,100.00
2019-04-27T03:27:00.516Z,100.00
2019-04-27T03:27:55.660Z,100.00
2019-04-27T03:28:52.150Z,100.00
2019-04-27T03:29:49.983Z,100.00
2019-04-27T03:30:46.647Z,100.00
2019-04-27T03:31:47.151Z,100.00
2019-04-27T03:32:43.061Z,100.00
2019-04-27T03:33:42.332Z,100.00
2019-04-27T03:34:34.611Z,100.00
2019-04-27T03:35:36.074Z,100.00
2019-04-27T03:36:31.523Z,100.00
2019-04-27T03:37:25.100Z,100.00
2019-04-27T03:38:22.598Z,100.00
2019-04-27T03:39:20.098Z,100.00
2019-04-27T03:40:16.571Z,100.00
2019-04-27T03:41:13.570Z,100.00
2019-04-27T03:42:10.673Z,100.00
2019-04-27T03:43:09.380Z,100.00
2019-04-27T03:44:04.537Z,100.00
2019-04-27T03:45:01.541Z,100.00
2019-04-27T03:46:00.393Z,100.00
2019-04-27T03:46:55.522Z,100.00
2019-04-27T03:47:52.028Z,100.00
2019-04-27T03:48:49.782Z,100.00
2019-04-27T03:49:46.553Z,100.00
2019-04-27T03:50:43.140Z,100.00
2019-04-27T03:51:40.488Z,100.00
2019-04-27T03:52:36.989Z,100.00
2019-04-27T03:53:34.476Z,100.00
2019-04-27T03:54:30.974Z,100.00
2019-04-27T03:55:30.435Z,100.00
2019-04-27T03:56:25.466Z,100.00
2019-04-27T03:57:22.449Z,100.00
2019-04-27T03:58:21.645Z,100.00
2019-04-27T03:59:15.945Z,100.00
2019-04-27T04:00:12.944Z,100.00
2019-04-27T04:01:10.563Z,100.00
2019-04-27T04:02:09.938Z,100.00
2019-04-27T04:03:04.425Z,100.00
2019-04-27T04:04:01.417Z,100.00
2019-04-27T04:04:59.597Z,100.00
2019-04-27T04:05:55.381Z,100.00
2019-04-27T04:06:52.393Z,100.00
2019-04-27T04:07:50.266Z,100.00
2019-04-27T04:08:46.370Z,100.00
2019-04-27T04:09:43.376Z,100.00
2019-04-27T04:10:41.806Z,100.00
2019-04-27T04:11:39.458Z,100.00
2019-04-27T04:12:34.367Z,100.00
2019-04-27T04:13:31.336Z,100.00
2019-04-27T04:14:30.198Z,100.00
2019-04-27T04:15:25.315Z,100.00
2019-04-27T04:16:22.317Z,100.00
2019-04-27T04:17:20.347Z,100.00
2019-04-27T04:18:15.819Z,100.00
2019-04-27T04:19:12.810Z,100.00
2019-04-27T04:20:10.285Z,100.00
2019-04-27T04:21:09.450Z,100.00
2019-04-27T04:22:03.780Z,100.00
2019-04-27T04:23:03.369Z,100.00
2019-04-27T04:23:57.761Z,100.00
2019-04-27T04:24:55.246Z,100.00
2019-04-27T04:25:51.755Z,100.00
2019-04-27T04:26:50.317Z,100.00
2019-04-27T04:27:46.250Z,100.00
2019-04-27T04:28:43.220Z,100.00
2019-04-27T04:29:40.221Z,100.00
2019-04-27T04:30:37.242Z,100.00
2019-04-27T04:31:33.735Z,100.00
2019-04-27T04:32:30.709Z,100.00
2019-04-27T04:33:30.232Z,100.00
2019-04-27T04:34:24.687Z,100.00
2019-04-27T04:35:22.179Z,100.00
2019-04-27T04:36:20.361Z,100.00
2019-04-27T04:37:16.154Z,100.00
2019-04-27T04:38:13.158Z,100.00
2019-04-27T04:39:11.941Z,100.00
2019-04-27T04:40:09.719Z,100.00
2019-04-27T04:41:04.155Z,100.00
2019-04-27T04:42:01.130Z,100.00
2019-04-27T04:43:00.296Z,100.00
2019-04-27T04:43:55.108Z,100.00
2019-04-27T04:44:52.115Z,100.00
2019-04-27T04:45:50.142Z,100.00
2019-04-27T04:46:46.091Z,100.00
2019-04-27T04:47:43.082Z,100.00
2019-04-27T04:48:40.525Z,100.00
2019-04-27T04:49:36.585Z,100.00
2019-04-27T04:50:34.065Z,100.00
2019-04-27T04:51:30.570Z,100.00
2019-04-27T04:52:29.503Z,100.00
2019-04-27T04:53:24.555Z,100.00
2019-04-27T04:54:24.590Z,100.00
2019-04-27T04:55:20.403Z,100.00
2019-04-27T04:56:15.536Z,100.00
2019-04-27T04:57:13.024Z,100.00
2019-04-27T04:58:10.020Z,100.00
2019-04-27T04:59:06.508Z,100.00
2019-04-27T05:00:04.005Z,100.00
2019-04-27T05:01:01.874Z,100.00
2019-04-27T05:01:59.747Z,100.00
2019-04-27T05:02:54.992Z,100.00
2019-04-27T05:03:51.978Z,100.00
2019-04-27T05:04:49.244Z,100.00
2019-04-27T05:05:45.963Z,100.00
2019-04-27T05:06:42.467Z,100.00
2019-04-27T05:07:39.456Z,100.00
2019-04-27T05:08:36.942Z,100.00
2019-04-27T05:09:33.445Z,100.00
2019-04-27T05:10:31.263Z,100.00
2019-04-27T05:11:29.622Z,100.00
2019-04-27T05:12:24.924Z,100.00
2019-04-27T05:13:21.928Z,100.00
2019-04-27T05:14:19.950Z,100.00
2019-04-27T05:15:15.897Z,100.00
2019-04-27T05:16:12.900Z,100.00
2019-04-27T05:17:09.881Z,100.00
2019-04-27T05:18:08.935Z,100.00
2019-04-27T05:19:03.373Z,100.00
2019-04-27T05:20:00.862Z,100.00
2019-04-27T05:20:58.620Z,100.00
2019-04-27T05:21:54.852Z,100.00
2019-04-27T05:22:51.354Z,100.00
2019-04-27T05:23:48.752Z,100.00
2019-04-27T05:24:45.331Z,100.00
2019-04-27T05:25:42.811Z,100.00
2019-04-27T05:26:39.871Z,100.00
2019-04-27T05:27:36.805Z,100.00
2019-04-27T05:28:33.806Z,100.00
2019-04-27T05:29:30.782Z,100.00
2019-04-27T05:30:28.657Z,100.00
2019-04-27T05:31:24.789Z,100.00
2019-04-27T05:32:21.764Z,100.00
2019-04-27T05:33:18.807Z,100.00
2019-04-27T05:34:15.261Z,100.00
2019-04-27T05:35:12.255Z,100.00
2019-04-27T05:36:09.733Z,100.00
2019-04-27T05:37:06.241Z,100.00
2019-04-27T05:38:07.352Z,100.00
2019-04-27T05:39:00.716Z,100.00
2019-04-27T05:39:58.898Z,100.00
2019-04-27T05:40:54.703Z,100.00
2019-04-27T05:41:51.207Z,100.00
2019-04-27T05:42:55.078Z,100.00
2019-04-27T05:43:45.194Z,100.00
2019-04-27T05:44:45.791Z,100.00
2019-04-27T05:45:39.650Z,100.00
2019-04-27T05:46:36.797Z,100.00
2019-04-27T05:47:33.656Z,100.00
2019-04-27T05:48:30.738Z,100.00
2019-04-27T05:49:27.158Z,100.00
2019-04-27T05:50:35.564Z,100.00
2019-04-27T05:51:21.138Z,100.00
2019-04-27T05:52:18.620Z,100.00
2019-04-27T05:53:15.142Z,100.00
2019-04-27T05:54:12.607Z,100.00
2019-04-27T05:55:10.493Z,100.00
2019-04-27T05:56:06.139Z,100.00
2019-04-27T05:57:03.612Z,100.00
2019-04-27T05:58:00.599Z,100.00
2019-04-27T05:58:57.082Z,100.00
2019-04-27T05:59:54.578Z,100.00
2019-04-27T06:00:51.072Z,100.00
2019-04-27T06:01:49.218Z,100.00
2019-04-27T06:02:45.555Z,100.00
2019-04-27T06:03:42.053Z,100.00
2019-04-27T06:04:41.272Z,100.00
2019-04-27T06:05:36.036Z,100.00
2019-04-27T06:06:33.532Z,100.00
2019-04-27T06:07:30.027Z,100.00
2019-04-27T06:08:27.025Z,100.00
2019-04-27T06:09:24.503Z,100.00
2019-04-27T06:10:21.500Z,100.00
2019-04-27T06:11:19.534Z,100.00
2019-04-27T06:12:15.486Z,100.00
2019-04-27T06:13:11.988Z,100.00
2019-04-27T06:14:09.741Z,100.00
2019-04-27T06:15:06.469Z,100.00
2019-04-27T06:16:02.956Z,100.00
2019-04-27T06:17:00.454Z,100.00
2019-04-27T06:17:57.437Z,100.00
2019-04-27T06:18:53.948Z,100.00
2019-04-27T06:19:50.960Z,100.00
2019-04-27T06:20:53.432Z,100.00
2019-04-27T06:21:45.424Z,100.00
2019-04-27T06:22:42.405Z,100.00
2019-04-27T06:23:39.407Z,100.00
2019-04-27T06:24:35.906Z,100.00
2019-04-27T06:25:33.396Z,100.00
2019-04-27T06:26:30.373Z,100.00
2019-04-27T06:27:30.217Z,100.00
2019-04-27T06:28:24.372Z,100.00
2019-04-27T06:29:21.371Z,100.00
2019-04-27T06:30:19.264Z,100.00
2019-04-27T06:31:15.348Z,100.00
2019-04-27T06:32:12.369Z,100.00
2019-04-27T06:33:09.489Z,100.00
2019-04-27T06:34:06.377Z,100.00
2019-04-27T06:35:03.325Z,100.00
2019-04-27T06:36:01.831Z,100.00
2019-04-27T06:36:57.608Z,100.00
2019-04-27T06:37:54.300Z,100.00
2019-04-27T06:38:51.287Z,100.00
2019-04-27T06:39:49.489Z,100.00
2019-04-27T06:40:45.272Z,100.00
2019-04-27T06:41:42.281Z,100.00
2019-04-27T06:42:39.820Z,100.00
2019-04-27T06:43:36.262Z,100.00
2019-04-27T06:44:33.256Z,100.00
2019-04-27T06:45:30.238Z,100.00
2019-04-27T06:46:28.846Z,100.00
2019-04-27T06:47:24.236Z,100.00
2019-04-27T06:48:21.280Z,100.00
2019-04-27T06:49:19.504Z,100.00
2019-04-27T06:50:15.219Z,100.00
2019-04-27T06:51:12.208Z,100.00
2019-04-27T06:52:09.206Z,100.00
2019-04-27T06:53:05.701Z,100.00
2019-04-27T06:54:03.178Z,100.00
2019-04-27T06:55:00.721Z,100.00
2019-04-27T06:55:58.619Z,100.00
2019-04-27T06:56:54.168Z,100.00
2019-04-27T06:57:51.147Z,100.00
2019-04-27T06:58:49.157Z,100.00
2019-04-27T06:59:45.137Z,100.00
2019-04-27T07:00:42.137Z,100.00
2019-04-27T07:01:39.168Z,100.00
2019-04-27T07:02:36.200Z,100.00
2019-04-27T07:03:33.629Z,100.00
2019-04-27T07:04:30.124Z,100.00
2019-04-27T07:05:28.762Z,100.00
2019-04-27T07:06:24.089Z,100.00
2019-04-27T07:07:20.590Z,100.00
2019-04-27T07:08:18.629Z,100.00
2019-04-27T07:09:15.100Z,100.00
2019-04-27T07:10:12.076Z,100.00
2019-04-27T07:11:11.325Z,100.00
2019-04-27T07:12:06.062Z,100.00
2019-04-27T07:13:03.035Z,100.00
2019-04-27T07:14:00.031Z,100.00
2019-04-27T07:14:59.027Z,100.00
2019-04-27T07:15:54.030Z,100.00
2019-04-27T07:16:50.835Z,100.00
2019-04-27T07:17:48.741Z,100.00
2019-04-27T07:18:45.004Z,100.00
2019-04-27T07:19:42.057Z,100.00
2019-04-27T07:20:39.001Z,100.00
2019-04-27T07:21:35.983Z,100.00
2019-04-27T07:22:32.974Z,99.63
2019-04-27T07:23:29.468Z,97.97
2019-04-27T07:24:26.955Z,98.03
2019-04-27T07:25:23.962Z,96.38
2019-04-27T07:26:21.233Z,91.98
2019-04-27T07:27:19.176Z,91.49
2019-04-27T07:28:14.941Z,94.11
2019-04-27T07:29:11.915Z,94.49
2019-04-27T07:30:11.858Z,94.35
2019-04-27T07:31:05.909Z,93.77
2019-04-27T07:32:02.910Z,94.66
2019-04-27T07:33:00.404Z,92.88
2019-04-27T07:33:56.890Z,93.43
2019-04-27T07:34:55.283Z,88.54
2019-04-27T07:35:50.881Z,87.78
2019-04-27T07:36:49.101Z,88.45
2019-04-27T07:37:44.945Z,83.40
2019-04-27T07:38:41.841Z,84.51
2019-04-27T07:39:39.180Z,85.95
2019-04-27T07:40:35.866Z,84.51
2019-04-27T07:41:32.830Z,84.29
2019-04-27T07:42:32.197Z,84.09
2019-04-27T07:43:26.812Z,82.37
2019-04-27T07:44:23.804Z,82.02
2019-04-27T07:45:20.844Z,83.41
2019-04-27T07:46:18.494Z,82.78
2019-04-27T07:47:15.784Z,82.43
2019-04-27T07:48:11.779Z,83.74
2019-04-27T07:49:09.383Z,83.85
2019-04-27T07:50:05.770Z,82.76
2019-04-27T07:51:02.762Z,83.89
2019-04-27T07:51:59.770Z,84.11
2019-04-27T07:52:58.556Z,84.98
2019-04-27T07:53:53.746Z,83.21
2019-04-27T07:54:50.754Z,85.00
2019-04-27T07:55:49.403Z,84.02
2019-04-27T07:56:44.727Z,84.90
2019-04-27T07:57:41.722Z,85.27
2019-04-27T07:58:39.584Z,84.63
2019-04-27T07:59:35.691Z,85.98
2019-04-27T08:00:32.711Z,85.26
2019-04-27T08:01:29.709Z,84.16
2019-04-27T08:02:26.681Z,86.66
2019-04-27T08:03:23.684Z,86.10
2019-04-27T08:04:20.686Z,85.01
2019-04-27T08:05:19.214Z,85.57
2019-04-27T08:06:14.647Z,85.95
2019-04-27T08:07:11.653Z,84.79
2019-04-27T08:08:09.003Z,86.19
2019-04-27T08:09:05.632Z,85.24
2019-04-27T08:10:02.631Z,84.73
2019-04-27T08:10:59.917Z,83.38
2019-04-27T08:11:56.608Z,83.11
2019-04-27T08:12:53.612Z,81.41
2019-04-27T08:13:50.616Z,83.51
2019-04-27T08:14:49.087Z,84.13
2019-04-27T08:15:44.589Z,83.49
2019-04-27T08:16:41.575Z,82.68
2019-04-27T08:17:42.380Z,83.04
2019-04-27T08:18:35.558Z,82.76
2019-04-27T08:19:32.057Z,84.76
2019-04-27T08:20:29.563Z,84.26
2019-04-27T08:21:26.528Z,84.89
2019-04-27T08:22:23.544Z,83.98
2019-04-27T08:23:20.516Z,84.51
2019-04-27T08:24:19.368Z,84.50
2019-04-27T08:25:14.514Z,84.10
2019-04-27T08:26:11.514Z,85.13
2019-04-27T08:27:09.419Z,85.85
2019-04-27T08:28:05.486Z,86.68
2019-04-27T08:29:02.488Z,87.06
2019-04-27T08:29:59.465Z,87.65
2019-04-27T08:30:56.469Z,88.18
2019-04-27T08:31:53.454Z,88.97
2019-04-27T08:32:50.455Z,87.97
2019-04-27T08:33:48.639Z,88.62
2019-04-27T08:34:44.441Z,89.97
2019-04-27T08:35:41.441Z,90.24
2019-04-27T08:36:38.881Z,90.55
2019-04-27T08:37:35.419Z,91.19
2019-04-27T08:38:32.413Z,90.46
2019-04-27T08:39:29.654Z,91.11
2019-04-27T08:40:26.401Z,90.58
2019-04-27T08:41:23.390Z,91.07
2019-04-27T08:42:20.393Z,92.32
2019-04-27T08:43:18.992Z,92.00
2019-04-27T08:44:14.380Z,92.39
2019-04-27T08:45:11.361Z,90.98
2019-04-27T08:46:08.830Z,91.42
2019-04-27T08:47:05.352Z,91.43
2019-04-27T08:48:02.372Z,91.41
2019-04-27T08:48:59.330Z,92.19
2019-04-27T08:49:56.370Z,91.72
2019-04-27T08:50:53.330Z,92.25
2019-04-27T08:51:57.347Z,92.79
2019-04-27T08:52:47.306Z,93.08
2019-04-27T08:53:44.298Z,93.56
2019-04-27T08:54:41.321Z,92.98
2019-04-27T08:55:39.480Z,93.15
2019-04-27T08:56:35.270Z,92.73
2019-04-27T08:57:32.291Z,93.90
2019-04-27T08:58:29.263Z,95.04
2019-04-27T08:59:26.262Z,94.68
2019-04-27T09:00:23.262Z,95.10
2019-04-27T09:01:21.268Z,95.94
2019-04-27T09:02:17.234Z,96.68
2019-04-27T09:03:14.229Z,96.34
2019-04-27T09:04:11.579Z,96.63
2019-04-27T09:05:09.534Z,95.91
2019-04-27T09:06:05.204Z,97.59
2019-04-27T09:07:02.227Z,98.07
2019-04-27T09:07:59.707Z,99.49
2019-04-27T09:08:56.178Z,100.00
2019-04-27T09:09:53.242Z,100.00
2019-04-27T09:10:50.169Z,100.00
2019-04-27T09:11:47.157Z,100.00
2019-04-27T09:12:43.664Z,100.00
2019-04-27T09:13:41.256Z,100.00
2019-04-27T09:14:38.989Z,100.00
2019-04-27T09:15:35.125Z,100.00
2019-04-27T09:16:32.131Z,100.00
2019-04-27T09:17:29.192Z,100.00
2019-04-27T09:18:25.623Z,100.00
2019-04-27T09:19:22.639Z,100.00
2019-04-27T09:20:19.620Z,100.00
2019-04-27T09:21:17.098Z,100.00
2019-04-27T09:22:16.593Z,100.00
2019-04-27T09:23:11.086Z,100.00
2019-04-27T09:24:09.440Z,100.00
2019-04-27T09:25:05.070Z,100.00
2019-04-27T09:26:02.050Z,100.00
2019-04-27T09:26:59.599Z,100.00
2019-04-27T09:27:56.054Z,100.00
2019-04-27T09:28:53.038Z,100.00
2019-04-27T09:29:50.170Z,100.00
2019-04-27T09:30:47.014Z,100.00
2019-04-27T09:31:44.021Z,100.00
2019-04-27T09:32:41.049Z,100.00
2019-04-27T09:33:38.026Z,100.00
2019-04-27T09:34:36.594Z,100.00
2019-04-27T09:35:31.992Z,100.00
2019-04-27T09:36:28.982Z,100.00
2019-04-27T09:37:27.425Z,100.00
2019-04-27T09:38:22.974Z,100.00
2019-04-27T09:39:19.959Z,100.00
2019-04-27T09:40:17.182Z,100.00
2019-04-27T09:41:13.472Z,100.00
2019-04-27T09:42:10.941Z,100.00
2019-04-27T09:43:07.961Z,100.00
2019-04-27T09:44:05.861Z,100.00
2019-04-27T09:45:01.924Z,100.00
2019-04-27T09:45:58.910Z,100.00
2019-04-27T09:46:56.149Z,100.00
2019-04-27T09:47:52.916Z,100.00
2019-04-27T09:48:49.900Z,100.00
2019-04-27T09:49:46.904Z,98.98
2019-04-27T09:50:43.889Z,99.19
2019-04-27T09:51:40.872Z,96.19
2019-04-27T09:52:37.863Z,95.93
2019-04-27T09:53:36.444Z,96.75
2019-04-27T09:54:31.847Z,96.08
2019-04-27T09:55:28.845Z,98.05
2019-04-27T09:56:26.174Z,99.11
2019-04-27T09:57:22.829Z,99.67
2019-04-27T09:58:20.848Z,100.00
2019-04-27T09:59:16.804Z,100.00
2019-04-27T10:00:13.811Z,100.00
2019-04-27T10:01:10.797Z,100.00
2019-04-27T10:02:08.572Z,100.00
2019-04-27T10:03:06.516Z,100.00
2019-04-27T10:04:01.786Z,100.00
2019-04-27T10:04:58.774Z,100.00
2019-04-27T10:05:57.054Z,100.00
2019-04-27T10:06:52.766Z,100.00
2019-04-27T10:07:51.422Z,100.00
2019-04-27T10:08:46.765Z,100.00
2019-04-27T10:09:45.472Z,100.00
2019-04-27T10:10:40.733Z,100.00
2019-04-27T10:11:37.728Z,100.00
2019-04-27T10:12:36.829Z,100.00
2019-04-27T10:13:31.717Z,100.00
2019-04-27T10:14:28.701Z,100.00
2019-04-27T10:15:26.716Z,100.00
2019-04-27T10:16:22.678Z,98.78
2019-04-27T10:17:19.680Z,95.75
2019-04-27T10:18:16.659Z,94.34
2019-04-27T10:19:13.669Z,94.46
2019-04-27T10:20:10.664Z,95.95
2019-04-27T10:21:07.683Z,93.56
2019-04-27T10:22:05.743Z,93.66
2019-04-27T10:23:01.629Z,92.69
2019-04-27T10:23:58.624Z,92.61
2019-04-27T10:24:55.640Z,94.50
2019-04-27T10:25:52.606Z,94.20
2019-04-27T10:26:50.607Z,94.44
2019-04-27T10:27:46.599Z,95.03
2019-04-27T10:28:43.599Z,93.49
2019-04-27T10:29:40.758Z,94.16
2019-04-27T10:30:37.580Z,92.60
2019-04-27T10:31:35.669Z,91.81
2019-04-27T10:32:31.557Z,91.99
2019-04-27T10:33:28.563Z,92.96
2019-04-27T10:34:25.574Z,92.63
2019-04-27T10:35:22.548Z,90.10
2019-04-27T10:36:19.532Z,86.47
2019-04-27T10:37:16.687Z,85.73
2019-04-27T10:38:13.571Z,85.71
2019-04-27T10:39:13.111Z,86.22
2019-04-27T10:40:07.529Z,86.53
2019-04-27T10:41:05.934Z,86.24
2019-04-27T10:42:02.485Z,86.89
2019-04-27T10:42:58.481Z,86.08
2019-04-27T10:43:55.504Z,87.50
2019-04-27T10:44:52.485Z,87.94
2019-04-27T10:45:49.641Z,89.57
2019-04-27T10:46:46.792Z,89.38
2019-04-27T10:47:43.458Z,90.06
2019-04-27T10:48:40.451Z,90.87
2019-04-27T10:49:37.460Z,90.14
2019-04-27T10:50:36.464Z,91.13
2019-04-27T10:51:31.439Z,90.33
2019-04-27T10:52:28.412Z,90.32
2019-04-27T10:53:26.900Z,91.37
2019-04-27T10:54:22.396Z,89.19
2019-04-27T10:55:19.404Z,90.47
2019-04-27T10:56:16.573Z,92.36
2019-04-27T10:58:10.376Z,92.68
2019-04-27T10:59:09.678Z,93.44
2019-04-27T11:00:04.385Z,92.65
2019-04-27T11:01:01.357Z,92.67
2019-04-27T11:01:58.374Z,92.64
2019-04-27T11:02:56.537Z,93.05
2019-04-27T11:03:52.371Z,92.28
2019-04-27T11:04:49.752Z,92.66
2019-04-27T11:05:46.374Z,91.73
2019-04-27T11:06:43.316Z,92.27
2019-04-27T11:07:40.301Z,91.39
2019-04-27T11:08:37.310Z,92.73
2019-04-27T11:09:34.294Z,93.01
2019-04-27T11:10:31.286Z,93.17
2019-04-27T11:11:28.281Z,93.62
2019-04-27T11:12:25.272Z,90.52
2019-04-27T11:13:22.267Z,91.03
2019-04-27T11:14:19.248Z,89.72
2019-04-27T11:15:16.682Z,90.82
2019-04-27T11:16:13.464Z,91.32
2019-04-27T11:17:10.241Z,91.59
2019-04-27T11:18:07.224Z,87.10
2019-04-27T11:19:06.459Z,86.76
2019-04-27T11:20:02.787Z,84.04
2019-04-27T11:20:58.220Z,82.64
2019-04-27T11:21:55.338Z,82.53
2019-04-27T11:22:52.185Z,83.13
2019-04-27T11:23:49.196Z,82.18
2019-04-27T11:24:47.947Z,83.17
2019-04-27T11:25:43.195Z,84.65
2019-04-27T11:26:40.170Z,84.92
2019-04-27T11:27:37.162Z,82.57
2019-04-27T11:28:35.844Z,80.59
2019-04-27T11:29:30.643Z,81.40
2019-04-27T11:30:28.147Z,82.21
2019-04-27T11:31:26.098Z,82.54
2019-04-27T11:32:22.126Z,79.12
2019-04-27T11:33:19.112Z,80.50
2019-04-27T11:34:16.108Z,80.22
2019-04-27T11:35:13.100Z,82.00
2019-04-27T11:36:10.093Z,83.47
2019-04-27T11:37:07.079Z,83.78
2019-04-27T11:38:05.615Z,83.42
2019-04-27T11:39:01.071Z,83.24
2019-04-27T11:39:57.571Z,84.52
2019-04-27T11:40:56.635Z,84.97
2019-04-27T11:41:52.054Z,86.99
2019-04-27T11:42:49.036Z,88.63
2019-04-27T11:43:46.438Z,89.98
2019-04-27T11:44:43.051Z,91.76
2019-04-27T11:45:40.034Z,93.24
2019-04-27T11:46:37.006Z,94.54
2019-04-27T11:47:34.013Z,96.30
2019-04-27T11:48:31.008Z,97.93
2019-04-27T11:49:28.004Z,98.29
2019-04-27T11:50:25.611Z,98.63
2019-04-27T11:51:21.990Z,98.27
2019-04-27T11:52:18.980Z,96.48
2019-04-27T11:53:22.645Z,97.59
2019-04-27T11:54:12.967Z,97.40
2019-04-27T11:55:09.966Z,94.96
2019-04-27T11:56:06.952Z,95.25
2019-04-27T11:57:03.942Z,95.36
2019-04-27T11:58:00.935Z,96.46
2019-04-27T11:58:57.445Z,96.30